WEATHER DATA

YESTERDAY
Time Temp. Dewp. Hum. Wind dir Wind speed Wind gust Bar. 1h Prec. 24h Prec.
00:06 12.2 10.1 87 225 1.4 3.3 1018.8 1.0100 0.1000
00:16 12.2 10.1 87 217 1.4 3.1 1018.8 0.7070 0.1000
00:26 12.1 10.2 88 227 1.1 1.9 1018.8 0.4040 0.1000
00:36 12.1 10.2 88 236 1.4 2.8 1018.6 0.2020 0.1000
00:47 12.1 10.2 88 243 1.1 2.5 1018.4 0.1010 0.1000
00:56 12.1 10.2 88 248 1.1 2.8 1018.4 0.0000 0.1000
01:06 12 10.1 88 270 1.1 3.1 1018.2 0.0000 0.1000
01:17 12 10.1 88 263 1.4 2.5 1018.2 0.0000 0.1000
01:27 12 10.1 88 255 1.1 1.9 1018.2 0.0000 0.1000
01:37 12 10.1 88 261 1.4 2.5 1018.2 0.0000 0.1000
01:46 12 10.2 89 263 1.4 2.5 1018.2 0.0000 0.1000
01:57 11.9 10.1 89 254 1.4 3.3 1018.2 0.0000 0.1000
02:07 11.9 10.1 89 286 1.4 3.1 1018.2 0.0000 0.1000
02:18 11.9 10.1 89 250 1.1 2.5 1018.1 0.3030 0.4000
02:28 11.9 10.1 89 234 1.4 2.8 1017.9 1.0100 1.1000
02:39 11.9 10.1 89 218 1.7 4.2 1017.9 1.4140 1.5000
02:49 11.9 10.1 89 229 1.9 3.3 1017.9 2.0200 2.1000
02:59 12 10.2 89 221 2.5 4.7 1017.9 2.3230 2.4000
03:08 11.9 10.3 90 222 1.9 4.2 1017.7 2.5250 2.6000
03:19 11.9 10.3 90 219 1.9 3.3 1017.6 2.2220 2.6000
03:29 11.9 10.3 90 217 1.7 3.1 1017.7 1.5150 2.6000
03:39 11.9 10.3 90 218 1.7 3.1 1017.5 1.1110 2.6000
03:49 11.9 10.3 90 222 1.4 2.8 1017.7 0.5050 2.6000
03:59 11.8 10.2 90 217 1.4 3.3 1017.6 0.2020 2.6000
04:11 11.8 10 89 217 1.1 1.9 1017.7 0.0000 2.6000
04:20 11.7 9.9 89 225 1.1 2.5 1017.7 0.0000 2.6000
04:30 11.6 9.9 89 223 1.4 2.5 1017.7 0.0000 2.6000
04:41 11.6 10 90 225 1.1 1.7 1017.9 0.0000 2.6000
04:51 11.5 9.9 90 227 1.4 2.5 1018.2 0.0000 2.6000
05:01 11.5 9.9 90 232 1.1 2.8 1018.2 0.0000 2.6000
05:11 11.5 9.9 90 228 1.1 1.9 1018.4 0.0000 2.6000
05:21 11.5 9.9 90 238 1.1 1.9 1018.4 0.0000 2.6000
05:31 11.5 9.9 90 242 1.1 1.9 1018.5 0.0000 2.6000
05:41 11.5 9.9 90 259 1.1 2.5 1018.6 0.0000 2.6000
05:52 11.5 9.9 90 254 1.1 1.9 1018.7 0.0000 2.6000
06:01 11.5 9.9 90 258 1.1 1.7 1018.8 0.0000 2.6000
06:11 11.5 9.9 90 258 1.1 2.5 1018.9 0.0000 2.6000
06:22 11.5 9.9 90 253 1.1 1.9 1019 0.0000 2.6000
06:32 11.5 9.9 90 244 1.1 2.8 1019.2 0.0000 2.6000
06:42 11.4 9.8 90 270 1.1 1.9 1019.4 0.0000 2.6000
06:52 11.3 9.7 90 244 1.1 2.5 1019.5 0.0000 2.6000
07:03 11.2 9.6 90 247 1.1 1.9 1019.7 0.0000 2.6000
07:13 11.1 9.5 90 236 1.1 1.9 1019.9 0.0000 2.6000
07:22 11.1 9.5 90 313 1.4 2.8 1020 0.0000 2.6000
07:32 11 9.4 90 306 1.4 2.8 1020.1 0.0000 2.6000
07:43 11.1 9.5 90 305 1.4 2.8 1020.1 0.0000 2.6000
07:51 11.1 9.7 91 270 1.4 2.8 1020.3 0.0000 2.6000
08:02 11.3 9.9 91 260 1.4 2.5 1020.4 0.0000 2.6000
08:12 11.4 10 91 263 1.4 3.1 1020.5 0.0000 2.6000
08:21 11.5 10.1 91 270 1.4 2.8 1020.6 0.1010 2.7000
08:35 11.6 10.2 91 281 1.4 3.1 1020.5 0.3030 2.9000
08:45 11.6 10.2 91 236 1.1 2.8 1020.4 0.4040 3.0000
08:55 11.7 10.3 91 237 1.1 1.9 1020.5 0.4040 3.0000
09:05 11.8 10.4 91 245 1.4 2.5 1020.8 0.4040 3.0000
09:15 11.9 10.5 91 246 1.4 2.8 1020.9 0.4040 3.0000
09:25 12 10.6 91 252 1.4 2.8 1020.9 0.2020 3.0000
09:36 12.1 10.7 91 276 1.4 2.5 1021 0.0000 3.0000
09:46 12.2 10.8 91 263 1.4 3.3 1021.1 0.0000 3.0000
09:55 12.3 10.9 91 243 1.4 1.9 1021.1 0.0000 3.0000
10:05 12.4 11 91 243 1.4 1.9 1021.1 0.0000 3.0000
10:16 12.4 10.8 90 243 1.4 1.9 1021.1 0.0000 3.0000
10:25 12.6 11.2 91 243 1.4 1.9 1021 0.0000 3.0000
10:34 12.8 11.4 91 323 1.9 2.8 1021 0.0000 3.0000
10:45 12.9 11.3 90 323 1.9 2.8 1021 0.0000 3.0000
10:55 13.1 11.5 90 253 1.1 1.1 1021.1 0.0000 3.0000
11:05 13.2 11.4 89 253 1.1 1.1 1021 0.0000 3.0000
11:16 13.5 11.7 89 240 1.7 2.8 1021 0.0000 3.0000
11:25 13.7 11.8 88 254 1.7 3.1 1021 0.0000 3.0000
11:35 14 11.9 87 244 1.9 3.3 1021 0.0000 3.0000
11:45 14.1 11.6 85 246 1.9 6.1 1020.9 0.0000 3.0000
11:56 14.3 11.6 84 246 2.5 4.4 1020.9 0.0000 3.0000
12:06 14.3 11.6 84 243 2.5 4.2 1020.9 0.0000 3.0000
12:15 14.3 11.5 83 240 2.5 5.6 1020.8 0.0000 3.0000
12:26 14.1 11.3 83 242 1.9 4.4 1020.8 0.0000 3.0000
12:38 14 11.2 83 251 2.5 3.1 1020.6 0.0000 3.0000
12:47 13.9 11.2 84 240 2.5 3.3 1020.6 0.1010 3.1000
12:57 13.9 11.4 85 258 1.9 2.5 1020.6 0.1010 3.1000
13:08 14.2 11.7 85 229 2.5 2.5 1020.6 0.1010 3.1000
13:18 14.4 11.7 84 254 1.9 4.2 1020.6 0.1010 3.1000
13:28 14.8 12.1 84 245 2.5 4.4 1020.8 0.1010 3.1000
13:38 15.2 12.3 83 258 1.9 3.6 1020.9 0.1010 3.1000
13:48 15.9 12.8 82 255 2.5 6.1 1021 0.0000 3.1000
13:58 16.4 12.9 80 243 2.8 7.5 1021.1 0.0000 3.1000
14:08 16.7 12.8 78 267 2.8 5.6 1021.2 0.0000 3.1000
14:19 16.9 12.8 77 247 2.5 6.7 1021.2 0.0000 3.1000
14:29 16.7 12.3 75 236 2.5 6.4 1021.2 0.0000 3.1000
14:38 16.6 12.2 75 246 2.5 6.4 1021.4 0.0000 3.1000
14:49 16.4 12 75 253 2.5 5.6 1021.5 0.0000 3.1000
14:59 16.2 11.8 75 256 1.9 5 1021.6 0.0000 3.1000
15:09 16 11.6 75 259 1.7 4.4 1021.7 0.0000 3.1000
15:19 15.8 11.4 75 257 1.9 4.4 1021.8 0.0000 3.1000
15:29 15.6 11.2 75 254 2.5 5 1021.8 0.0000 3.1000
15:39 15.4 10.8 74 264 1.7 3.6 1022 0.0000 3.1000
15:49 15.2 10.8 75 270 1.7 4.7 1022 0.0000 3.1000
15:59 15 10.6 75 249 1.9 5 1021.9 0.0000 3.1000
16:10 14.7 10.3 75 261 1.7 4.4 1022 0.0000 3.1000
16:19 14.4 10 75 254 1.7 3.6 1022 0.0000 3.1000
16:29 14.2 10 76 245 1.9 3.1 1022.2 0.0000 3.1000
16:40 13.9 9.7 76 235 1.9 4.2 1022.4 0.0000 3.1000
16:50 13.6 9.5 76 234 1.9 3.6 1022.5 0.0000 3.1000
17:00 13.4 9.3 76 234 1.9 3.6 1022.6 0.0000 3.1000
17:10 13.1 9.2 77 239 1.9 3.3 1022.8 0.0000 3.1000
17:20 13 9.3 78 238 1.9 3.1 1022.9 0.0000 3.1000
17:30 12.8 9.1 78 234 1.9 3.6 1023.2 0.0000 3.1000
17:40 12.7 9 78 230 1.9 3.6 1023.4 0.0000 3.1000
17:51 12.6 9.1 79 227 1.9 3.3 1023.7 0.0000 3.1000
18:01 12.5 9 79 234 1.7 3.1 1023.8 0.0000 3.1000
18:20 12.4 9.1 80 230 1.9 3.3 1024 0.0000 3.1000
18:31 12.4 9.1 80 232 1.9 3.3 1024.1 0.0000 3.1000
18:41 12.4 9.1 80 233 1.9 3.3 1024.3 0.0000 3.1000
18:51 12.3 9 80 230 1.9 3.6 1024.4 0.0000 3.1000
19:01 12.3 9 80 229 1.9 3.6 1024.5 0.0000 3.1000
19:11 12.2 9 81 228 1.9 3.6 1024.6 0.0000 3.1000
19:21 12.2 9 81 222 2.5 4.2 1024.6 0.0000 3.1000
19:31 12.1 8.8 80 225 2.5 4.4 1024.8 0.0000 3.1000
19:42 12 8.7 80 227 1.9 3.3 1024.8 0.0000 3.1000
19:51 11.9 8.4 79 225 1.9 3.6 1024.8 0.0000 3.1000
20:01 11.8 8.3 79 226 1.9 3.3 1025.1 0.0000 3.1000
20:12 11.6 8.1 79 224 1.9 3.3 1025.1 0.0000 3.1000
20:22 11.5 8 79 232 1.9 4.4 1025.1 0.0000 3.1000
20:32 11.3 7.8 79 234 1.9 3.3 1025.3 0.0000 3.1000
20:42 11.2 7.9 80 240 1.9 3.1 1025.4 0.0000 3.1000
20:52 11.1 7.8 80 232 1.9 3.3 1025.4 0.0000 3.1000
21:02 11 7.7 80 228 1.9 3.3 1025.5 0.0000 3.1000
21:12 10.9 7.6 80 233 1.7 3.3 1025.6 0.0000 3.1000
21:22 10.8 7.7 81 228 1.9 3.3 1025.6 0.0000 3.1000
21:33 10.7 7.6 81 239 1.9 3.6 1025.6 0.0000 3.1000
21:42 10.6 7.5 81 243 1.9 3.3 1025.7 0.0000 3.1000
21:52 10.5 7.2 80 229 1.9 3.3 1025.7 0.0000 3.1000
22:08 10.3 7.2 81 235 1.9 3.6 1025.8 0.0000 3.1000
22:14 10.3 7.2 81 229 1.9 3.1 1025.8 0.0000 3.1000
22:23 10.3 7.4 82 230 1.9 3.3 1025.7 0.0000 3.1000
22:33 10.3 7.5 83 210 2.8 3.1 1025.7 0.0000 3.1000
22:41 10.3 7.5 83 233 2.8 3.1 1025.7 0.0000 3.1000
22:50 10.4 7.6 83 250 1.9 3.1 1025.7 0.0000 3.1000
23:01 10.5 7.7 83 233 1.7 3.6 1025.7 0.0000 3.1000
23:11 10.5 7.9 84 231 1.9 2.8 1025.7 0.1010 3.2000
23:21 10.5 7.9 84 239 1.9 3.1 1025.7 0.1010 3.2000
23:30 10.5 7.9 84 229 1.9 3.3 1025.6 0.1010 3.2000
23:41 10.4 7.8 84 229 2.5 4.4 1025.6 0.1010 3.2000
23:51 10.3 7.7 84 247 1.9 3.3 1025.6 0.1010

DAY STATISTIC

2021-05-11
TEMPERATURE
AVERAGE
12.5
HIGH
16.9
14:19
LOW
10.3
22:08
PRESSURE
AVERAGE
1021.4
HIGH
1025.8
22:08
LOW
1017.5
03:39
DEWPOINT
AVERAGE
9.9
HIGH
12.9
13:58
LOW
7.2
21:52
HUMIDITY
AVERAGE
85
HIGH
91
07:51
LOW
74
15:39
WIND SPEED
AVERAGE
1.7
HIGH
2.8
13:58
WIND GUST
AVERAGE
3.3
HIGH
7.5
13:58
WIND DIRECTION
PREVAILING
SW
66%
N
0.0
NE
0.0
E
0.0
SE
0.0
S
0.0
SW
66.0
W
30.5
NW
3.5
PRECIPITATION
RAIN HOUR
2.5
RAIN DAY
3.2
TEMPERATURE (°C)
LOW
10.3
HIGH
16.9
AVERAGE
12.5
PRESSURE (hpa)
LOW
1017.5
HIGH
1025.8
AVERAGE
1021.4
DEVICE